createdAt,value
2023-06-27T00:00:25.087Z,17.77
2023-06-27T00:01:25.149Z,17.77
2023-06-27T00:02:25.212Z,17.78
2023-06-27T00:03:25.346Z,17.79
2023-06-27T00:04:25.315Z,17.80
2023-06-27T00:05:25.410Z,17.81
2023-06-27T00:06:25.493Z,17.81
2023-06-27T00:07:25.641Z,17.81
2023-06-27T00:08:25.689Z,17.80
2023-06-27T00:09:25.771Z,17.79
2023-06-27T00:10:25.838Z,17.77
2023-06-27T00:11:25.893Z,17.76
2023-06-27T00:12:25.992Z,17.74
2023-06-27T00:13:26.054Z,17.73
2023-06-27T00:14:26.173Z,17.73
2023-06-27T00:15:26.218Z,17.72
2023-06-27T00:16:26.306Z,17.71
2023-06-27T00:17:26.436Z,17.71
2023-06-27T00:18:26.462Z,17.71
2023-06-27T00:19:26.568Z,17.71
2023-06-27T00:20:26.697Z,17.71
2023-06-27T00:21:26.717Z,17.70
2023-06-27T00:22:26.822Z,17.70
2023-06-27T00:23:26.881Z,17.70
2023-06-27T00:24:26.970Z,17.69
2023-06-27T00:25:27.031Z,17.68
2023-06-27T00:26:27.133Z,17.66
2023-06-27T00:27:27.225Z,17.62
2023-06-27T00:28:27.315Z,17.59
2023-06-27T00:29:27.413Z,17.56
2023-06-27T00:30:27.576Z,17.54
2023-06-27T00:31:27.628Z,17.53
2023-06-27T00:32:27.645Z,17.50
2023-06-27T00:33:27.732Z,17.47
2023-06-27T00:34:27.788Z,17.43
2023-06-27T00:35:27.865Z,17.38
2023-06-27T00:36:27.949Z,17.33
2023-06-27T00:37:28.052Z,17.28
2023-06-27T00:38:28.148Z,17.25
2023-06-27T00:39:28.200Z,17.23
2023-06-27T00:40:28.318Z,17.22
2023-06-27T00:41:28.379Z,17.21
2023-06-27T00:42:28.449Z,17.21
2023-06-27T00:43:28.524Z,17.21
2023-06-27T00:44:28.611Z,17.21
2023-06-27T00:45:28.673Z,17.22
2023-06-27T00:46:28.732Z,17.24
2023-06-27T00:47:28.812Z,17.24
2023-06-27T00:48:28.894Z,17.25
2023-06-27T00:49:28.967Z,17.26
2023-06-27T00:50:29.027Z,17.26
2023-06-27T00:51:29.085Z,17.26
2023-06-27T00:52:29.197Z,17.26
2023-06-27T00:53:29.285Z,17.26
2023-06-27T00:54:29.328Z,17.26
2023-06-27T00:55:29.428Z,17.27
2023-06-27T00:56:29.491Z,17.27
2023-06-27T00:57:29.543Z,17.28
2023-06-27T00:58:29.635Z,17.28
2023-06-27T00:59:29.736Z,17.27
2023-06-27T01:00:29.794Z,17.26
2023-06-27T01:01:29.877Z,17.26
2023-06-27T01:02:30.022Z,17.26
2023-06-27T01:03:30.175Z,17.25
2023-06-27T01:04:30.107Z,17.25
2023-06-27T01:05:30.163Z,17.24
2023-06-27T01:06:30.291Z,17.21
2023-06-27T01:07:30.395Z,17.17
2023-06-27T01:08:30.417Z,17.12
2023-06-27T01:09:30.518Z,17.07
2023-06-27T01:10:30.603Z,17.02
2023-06-27T01:11:30.700Z,16.97
2023-06-27T01:12:30.798Z,16.93
2023-06-27T01:13:30.872Z,16.88
2023-06-27T01:14:30.943Z,16.83
2023-06-27T01:15:31.052Z,16.79
2023-06-27T01:16:31.132Z,16.75
2023-06-27T01:17:31.194Z,16.72
2023-06-27T01:18:31.264Z,16.67
2023-06-27T01:19:31.356Z,16.63
2023-06-27T01:20:31.449Z,16.57
2023-06-27T01:21:31.567Z,16.53
2023-06-27T01:22:31.651Z,16.51
2023-06-27T01:23:31.726Z,16.48
2023-06-27T01:24:31.788Z,16.44
2023-06-27T01:25:31.889Z,16.41
2023-06-27T01:26:31.952Z,16.38
2023-06-27T01:27:32.024Z,16.35
2023-06-27T01:28:32.084Z,16.32
2023-06-27T01:29:32.177Z,16.29
2023-06-27T01:30:32.279Z,16.26
2023-06-27T01:31:32.423Z,16.23
2023-06-27T01:32:32.458Z,16.19
2023-06-27T01:33:32.510Z,16.16
2023-06-27T01:34:32.600Z,16.13
2023-06-27T01:35:32.671Z,16.10
2023-06-27T01:36:33.562Z,16.07
2023-06-27T01:37:32.849Z,16.05
2023-06-27T01:38:32.967Z,16.02
2023-06-27T01:39:33.009Z,15.99
2023-06-27T01:40:33.068Z,15.95
2023-06-27T01:41:33.281Z,15.91
2023-06-27T01:42:33.247Z,15.87
2023-06-27T01:43:33.349Z,15.82
2023-06-27T01:44:33.434Z,15.77
2023-06-27T01:45:33.558Z,15.74
2023-06-27T01:46:33.662Z,15.70
2023-06-27T01:47:33.698Z,15.68
2023-06-27T01:48:33.819Z,15.66
2023-06-27T01:49:33.973Z,15.64
2023-06-27T01:50:40.438Z,15.62
2023-06-27T01:51:34.746Z,15.59
2023-06-27T01:52:34.160Z,15.56
2023-06-27T01:53:35.798Z,15.54
2023-06-27T01:54:34.288Z,15.51
2023-06-27T01:55:34.380Z,15.48
2023-06-27T01:56:34.487Z,15.45
2023-06-27T01:57:34.565Z,15.44
2023-06-27T01:58:34.640Z,15.42
2023-06-27T01:59:34.688Z,15.39
2023-06-27T02:00:34.785Z,15.37
2023-06-27T02:01:34.960Z,15.34
2023-06-27T02:02:35.016Z,15.31
2023-06-27T02:03:35.042Z,15.27
2023-06-27T02:04:35.086Z,15.25
2023-06-27T02:05:35.181Z,15.22
2023-06-27T02:06:35.252Z,15.21
2023-06-27T02:07:35.314Z,15.20
2023-06-27T02:08:35.405Z,15.20
2023-06-27T02:09:35.455Z,15.21
2023-06-27T02:10:35.553Z,15.20
2023-06-27T02:11:35.611Z,15.19
2023-06-27T02:12:35.697Z,15.17
2023-06-27T02:13:35.807Z,15.16
2023-06-27T02:14:35.895Z,15.16
2023-06-27T02:15:35.954Z,15.15
2023-06-27T02:16:36.039Z,15.13
2023-06-27T02:17:36.161Z,15.10
2023-06-27T02:18:36.232Z,15.08
2023-06-27T02:19:36.327Z,15.06
2023-06-27T02:20:36.374Z,15.05
2023-06-27T02:21:36.425Z,15.03
2023-06-27T02:22:36.525Z,15.00
2023-06-27T02:23:36.631Z,14.98
2023-06-27T02:24:36.691Z,14.96
2023-06-27T02:25:36.788Z,14.94
2023-06-27T02:26:36.885Z,14.92
2023-06-27T02:27:36.974Z,14.90
2023-06-27T02:28:38.419Z,14.88
2023-06-27T02:29:37.127Z,14.86
2023-06-27T02:30:37.199Z,14.84
2023-06-27T02:31:37.252Z,14.82
2023-06-27T02:32:37.397Z,14.81
2023-06-27T02:33:37.437Z,14.80
2023-06-27T02:34:37.529Z,14.79
2023-06-27T02:35:37.899Z,14.78
2023-06-27T02:36:37.714Z,14.78
2023-06-27T02:37:37.807Z,14.77
2023-06-27T02:38:37.924Z,14.77
2023-06-27T02:39:37.978Z,14.76
2023-06-27T02:40:38.106Z,14.74
2023-06-27T02:41:38.175Z,14.72
2023-06-27T02:42:38.240Z,14.71
2023-06-27T02:43:38.328Z,14.70
2023-06-27T02:44:38.440Z,14.68
2023-06-27T02:45:38.746Z,14.67
2023-06-27T02:46:38.580Z,14.65
2023-06-27T02:47:38.655Z,14.64
2023-06-27T02:48:38.692Z,14.63
2023-06-27T02:49:38.777Z,14.62
2023-06-27T02:50:38.835Z,14.60
2023-06-27T02:51:38.921Z,14.58
2023-06-27T02:52:39.717Z,14.57
2023-06-27T02:53:39.140Z,14.55
2023-06-27T02:54:39.191Z,14.54
2023-06-27T02:55:39.636Z,14.54
2023-06-27T02:56:39.364Z,14.54
2023-06-27T02:57:39.429Z,14.53
2023-06-27T02:58:39.522Z,14.53
2023-06-27T02:59:39.640Z,14.54
2023-06-27T03:00:39.707Z,14.54
2023-06-27T03:01:39.821Z,14.53
2023-06-27T03:02:39.985Z,14.51
2023-06-27T03:03:40.014Z,14.49
2023-06-27T03:04:40.043Z,14.47
2023-06-27T03:05:40.345Z,14.45
2023-06-27T03:06:40.202Z,14.42
2023-06-27T03:07:40.272Z,14.40
2023-06-27T03:08:40.383Z,14.39
2023-06-27T03:09:40.430Z,14.38
2023-06-27T03:10:40.528Z,14.39
2023-06-27T03:11:40.651Z,14.39
2023-06-27T03:12:40.719Z,14.40
2023-06-27T03:13:40.810Z,14.40
2023-06-27T03:14:40.883Z,14.40
2023-06-27T03:15:41.109Z,14.39
2023-06-27T03:16:41.028Z,14.38
2023-06-27T03:17:42.825Z,14.36
2023-06-27T03:18:41.160Z,14.35
2023-06-27T03:19:45.042Z,14.35
2023-06-27T03:20:41.349Z,14.35
2023-06-27T03:21:41.421Z,14.35
2023-06-27T03:22:41.512Z,14.36
2023-06-27T03:23:42.108Z,14.37
2023-06-27T03:24:41.636Z,14.36
2023-06-27T03:25:41.895Z,14.35
2023-06-27T03:26:41.784Z,14.33
2023-06-27T03:27:41.896Z,14.34
2023-06-27T03:28:41.953Z,14.35
2023-06-27T03:29:42.032Z,14.38
2023-06-27T03:30:42.131Z,14.41
2023-06-27T03:31:42.286Z,14.44
2023-06-27T03:32:42.336Z,14.47
2023-06-27T03:33:42.361Z,14.49
2023-06-27T03:34:42.424Z,14.51
2023-06-27T03:35:42.652Z,14.56
2023-06-27T03:36:42.588Z,14.59
2023-06-27T03:37:42.647Z,14.62
2023-06-27T03:38:42.752Z,14.64
2023-06-27T03:39:42.810Z,14.66
2023-06-27T03:40:42.895Z,14.68
2023-06-27T03:41:42.976Z,14.70
2023-06-27T03:42:43.042Z,14.73
2023-06-27T03:43:43.146Z,14.75
2023-06-27T03:44:43.192Z,14.78
2023-06-27T03:45:43.540Z,14.80
2023-06-27T03:46:43.351Z,14.82
2023-06-27T03:47:43.430Z,14.83
2023-06-27T03:48:43.511Z,14.84
2023-06-27T03:49:43.574Z,14.84
2023-06-27T03:50:43.686Z,14.84
2023-06-27T03:51:43.703Z,14.83
2023-06-27T03:52:43.788Z,14.81
2023-06-27T03:53:43.893Z,14.81
2023-06-27T03:54:46.496Z,14.82
2023-06-27T03:55:44.117Z,14.82
2023-06-27T03:56:44.140Z,14.83
2023-06-27T03:57:44.225Z,14.84
2023-06-27T03:58:44.343Z,14.85
2023-06-27T03:59:44.401Z,14.87
2023-06-27T04:00:44.462Z,14.89
2023-06-27T04:01:44.551Z,14.90
2023-06-27T04:02:44.711Z,14.92
2023-06-27T04:03:44.754Z,14.94
2023-06-27T04:04:44.912Z,14.95
2023-06-27T04:05:44.952Z,14.97
2023-06-27T04:06:45.028Z,14.98
2023-06-27T04:07:45.058Z,15.00
2023-06-27T04:08:45.119Z,15.02
2023-06-27T04:09:45.180Z,15.04
2023-06-27T04:10:45.240Z,15.06
2023-06-27T04:11:45.345Z,15.07
2023-06-27T04:12:45.437Z,15.06
2023-06-27T04:13:45.519Z,15.04
2023-06-27T04:14:45.636Z,15.02
2023-06-27T04:15:45.649Z,15.01
2023-06-27T04:16:45.877Z,15.01
2023-06-27T04:17:45.880Z,15.01
2023-06-27T04:18:45.906Z,15.02
2023-06-27T04:19:46.030Z,15.04
2023-06-27T04:20:46.070Z,15.07
2023-06-27T04:21:46.148Z,15.12
2023-06-27T04:22:46.233Z,15.16
2023-06-27T04:23:46.334Z,15.20
2023-06-27T04:24:46.404Z,15.24
2023-06-27T04:25:46.519Z,15.28
2023-06-27T04:26:46.564Z,15.32
2023-06-27T04:27:46.636Z,15.35
2023-06-27T04:28:46.716Z,15.38
2023-06-27T04:29:46.779Z,15.43
2023-06-27T04:30:46.881Z,15.46
2023-06-27T04:31:46.967Z,15.47
2023-06-27T04:32:47.071Z,15.50
2023-06-27T04:33:47.107Z,15.53
2023-06-27T04:34:47.203Z,15.53
2023-06-27T04:35:47.295Z,15.52
2023-06-27T04:36:47.373Z,15.52
2023-06-27T04:37:47.458Z,15.51
2023-06-27T04:38:47.507Z,15.49
2023-06-27T04:39:47.565Z,15.49
2023-06-27T04:40:47.665Z,15.50
2023-06-27T04:41:47.757Z,15.53
2023-06-27T04:42:47.818Z,15.57
2023-06-27T04:43:47.896Z,15.61
2023-06-27T04:44:47.988Z,15.62
2023-06-27T04:45:48.090Z,15.60
2023-06-27T04:46:48.149Z,15.56
2023-06-27T04:47:48.286Z,15.52
2023-06-27T04:48:48.287Z,15.46
2023-06-27T04:49:48.374Z,15.41
2023-06-27T04:50:48.439Z,15.38
2023-06-27T04:51:48.506Z,15.40
2023-06-27T04:52:48.573Z,15.45
2023-06-27T04:53:48.666Z,15.53
2023-06-27T04:54:48.757Z,15.62
2023-06-27T04:55:48.824Z,15.69
2023-06-27T04:56:51.383Z,15.79
2023-06-27T04:57:49.007Z,15.91
2023-06-27T04:58:49.085Z,16.03
2023-06-27T04:59:49.157Z,16.12
2023-06-27T05:00:49.328Z,16.21
2023-06-27T05:01:49.332Z,16.26
2023-06-27T05:02:50.374Z,16.29
2023-06-27T05:03:49.479Z,16.31
2023-06-27T05:04:49.552Z,16.40
2023-06-27T05:05:49.618Z,16.54
2023-06-27T05:06:49.765Z,16.64
2023-06-27T05:07:49.774Z,16.68
2023-06-27T05:08:49.884Z,16.74
2023-06-27T05:09:49.925Z,16.78
2023-06-27T05:10:50.269Z,16.78
2023-06-27T05:11:50.109Z,16.82
2023-06-27T05:12:50.167Z,17.02
2023-06-27T05:13:50.253Z,17.36
2023-06-27T05:14:50.359Z,17.66
2023-06-27T05:15:51.398Z,17.89
2023-06-27T05:16:50.518Z,18.06
2023-06-27T05:17:50.608Z,18.23
2023-06-27T05:18:50.650Z,18.35
2023-06-27T05:19:50.753Z,18.37
2023-06-27T05:20:50.844Z,18.40
2023-06-27T05:21:50.936Z,18.48
2023-06-27T05:22:51.040Z,18.60
2023-06-27T05:23:51.134Z,18.78
2023-06-27T05:24:51.197Z,18.96
2023-06-27T05:25:51.281Z,19.11
2023-06-27T05:26:51.374Z,19.21
2023-06-27T05:27:51.464Z,19.21
2023-06-27T05:28:51.543Z,19.14
2023-06-27T05:29:51.648Z,19.06
2023-06-27T05:30:51.725Z,18.91
2023-06-27T05:31:51.761Z,18.69
2023-06-27T05:32:51.878Z,18.49
2023-06-27T05:33:51.957Z,18.31
2023-06-27T05:34:52.033Z,18.11
2023-06-27T05:36:52.170Z,17.81
2023-06-27T05:37:52.252Z,17.70
2023-06-27T05:38:52.319Z,17.59
2023-06-27T05:39:52.396Z,17.53
2023-06-27T05:40:52.495Z,17.52
2023-06-27T05:41:52.588Z,17.62
2023-06-27T05:42:52.687Z,17.71
2023-06-27T05:43:52.776Z,17.77
2023-06-27T05:44:52.826Z,17.84
2023-06-27T05:45:52.890Z,17.83
2023-06-27T05:46:52.960Z,17.79
2023-06-27T05:47:53.019Z,17.75
2023-06-27T05:48:53.111Z,17.72
2023-06-27T05:49:53.177Z,17.69
2023-06-27T05:50:53.216Z,17.77
2023-06-27T05:51:53.320Z,17.97
2023-06-27T05:52:53.377Z,18.21
2023-06-27T05:53:53.449Z,18.38
2023-06-27T05:54:53.541Z,18.44
2023-06-27T05:55:53.654Z,18.46
2023-06-27T05:56:53.695Z,18.56
2023-06-27T05:57:53.786Z,18.67
2023-06-27T05:58:53.919Z,18.75
2023-06-27T05:59:53.957Z,18.81
2023-06-27T06:00:54.019Z,18.87
2023-06-27T06:01:54.212Z,18.95
2023-06-27T06:02:54.243Z,18.97
2023-06-27T06:03:54.285Z,19.01
2023-06-27T06:04:54.347Z,19.17
2023-06-27T06:05:54.419Z,19.33
2023-06-27T06:06:54.511Z,19.40
2023-06-27T06:07:54.601Z,19.42
2023-06-27T06:08:54.657Z,19.47
2023-06-27T06:09:54.744Z,19.52
2023-06-27T06:10:54.845Z,19.64
2023-06-27T06:11:54.897Z,19.82
2023-06-27T06:12:54.962Z,19.91
2023-06-27T06:13:55.067Z,19.99
2023-06-27T06:14:55.135Z,20.08
2023-06-27T06:15:55.191Z,20.13
2023-06-27T06:16:55.319Z,20.15
2023-06-27T06:17:55.597Z,20.17
2023-06-27T06:18:55.450Z,20.19
2023-06-27T06:19:55.575Z,20.19
2023-06-27T06:20:55.593Z,20.22
2023-06-27T06:21:55.684Z,20.26
2023-06-27T06:22:55.816Z,20.29
2023-06-27T06:23:55.871Z,20.28
2023-06-27T06:24:55.989Z,20.24
2023-06-27T06:25:56.096Z,20.22
2023-06-27T06:26:56.151Z,20.25
2023-06-27T06:27:56.251Z,20.26
2023-06-27T06:28:56.344Z,20.25
2023-06-27T06:29:56.373Z,20.18
2023-06-27T06:30:56.491Z,20.10
2023-06-27T06:31:56.661Z,20.03
2023-06-27T06:32:56.666Z,19.98
2023-06-27T06:33:56.722Z,19.98
2023-06-27T06:34:56.833Z,19.98
2023-06-27T06:35:56.876Z,19.90
2023-06-27T06:36:56.956Z,19.78
2023-06-27T06:37:57.120Z,19.67
2023-06-27T06:38:57.119Z,19.55
2023-06-27T06:39:57.187Z,19.56
2023-06-27T06:40:57.280Z,19.71
2023-06-27T06:41:57.338Z,19.71
2023-06-27T06:42:57.463Z,19.63
2023-06-27T06:43:57.537Z,19.69
2023-06-27T06:44:57.591Z,19.77
2023-06-27T06:45:57.764Z,19.85
2023-06-27T06:46:57.800Z,19.92
2023-06-27T06:47:57.854Z,20.01
2023-06-27T06:48:57.948Z,20.14
2023-06-27T06:49:58.002Z,20.25
2023-06-27T06:50:58.129Z,20.34
2023-06-27T06:51:58.169Z,20.38
2023-06-27T06:52:58.226Z,20.38
2023-06-27T06:53:58.313Z,20.40
2023-06-27T06:54:58.412Z,20.46
2023-06-27T06:55:58.503Z,20.53
2023-06-27T06:56:58.570Z,20.62
2023-06-27T06:57:58.642Z,20.79
2023-06-27T06:58:58.726Z,20.98
2023-06-27T06:59:58.823Z,21.16
2023-06-27T07:00:58.971Z,21.37
2023-06-27T07:01:58.986Z,21.57
2023-06-27T07:02:59.057Z,21.67
2023-06-27T07:03:59.176Z,21.67
2023-06-27T07:04:59.328Z,21.65
2023-06-27T07:05:59.308Z,21.68
2023-06-27T07:06:59.465Z,21.71
2023-06-27T07:07:59.507Z,21.74
2023-06-27T07:08:59.605Z,21.79
2023-06-27T07:09:59.703Z,21.82
2023-06-27T07:10:59.761Z,21.70
2023-06-27T07:11:59.871Z,21.57
2023-06-27T07:12:59.972Z,21.41
2023-06-27T07:14:00.051Z,21.15
2023-06-27T07:15:00.182Z,20.87
2023-06-27T07:16:00.202Z,20.62
2023-06-27T07:17:00.308Z,20.41
2023-06-27T07:18:00.463Z,20.30
2023-06-27T07:19:00.449Z,20.33
2023-06-27T07:20:00.521Z,20.53
2023-06-27T07:21:00.617Z,20.91
2023-06-27T07:22:00.693Z,21.43
2023-06-27T07:23:00.786Z,21.87
2023-06-27T07:24:00.892Z,22.11
2023-06-27T07:25:00.951Z,22.16
2023-06-27T07:26:01.044Z,22.05
2023-06-27T07:27:01.144Z,21.81
2023-06-27T07:28:01.240Z,21.46
2023-06-27T07:29:01.330Z,21.23
2023-06-27T07:30:01.423Z,21.10
2023-06-27T07:31:01.603Z,20.84
2023-06-27T07:32:01.602Z,20.52
2023-06-27T07:33:01.776Z,20.36
2023-06-27T07:34:01.766Z,20.30
2023-06-27T07:35:01.835Z,20.28
2023-06-27T07:36:01.882Z,20.48
2023-06-27T07:37:01.956Z,20.96
2023-06-27T07:38:02.071Z,21.57
2023-06-27T07:39:03.253Z,22.18
2023-06-27T07:40:02.185Z,22.70
2023-06-27T07:41:02.251Z,23.13
2023-06-27T07:42:02.308Z,23.40
2023-06-27T07:43:04.295Z,23.54
2023-06-27T07:44:02.483Z,23.61
2023-06-27T07:45:02.554Z,23.66
2023-06-27T07:46:04.613Z,23.59
2023-06-27T07:47:02.676Z,23.49
2023-06-27T07:48:02.842Z,23.49
2023-06-27T07:49:02.844Z,23.44
2023-06-27T07:50:02.903Z,23.31
2023-06-27T07:51:02.983Z,23.10
2023-06-27T07:52:03.094Z,22.84
2023-06-27T07:53:03.139Z,22.58
2023-06-27T07:54:03.215Z,22.31
2023-06-27T07:55:03.288Z,21.99
2023-06-27T07:56:03.342Z,21.67
2023-06-27T07:57:03.412Z,21.39
2023-06-27T07:58:03.487Z,21.08
2023-06-27T07:59:03.598Z,20.78
2023-06-27T08:00:03.670Z,20.66
2023-06-27T08:01:03.754Z,20.60
2023-06-27T08:02:03.887Z,20.53
2023-06-27T08:03:03.975Z,20.52
2023-06-27T08:04:04.044Z,20.68
2023-06-27T08:05:04.076Z,21.09
2023-06-27T08:06:04.135Z,21.66
2023-06-27T08:07:04.264Z,22.26
2023-06-27T08:08:04.299Z,22.77
2023-06-27T08:09:04.398Z,23.03
2023-06-27T08:10:04.487Z,23.10
2023-06-27T08:11:04.553Z,22.91
2023-06-27T08:12:04.695Z,22.54
2023-06-27T08:13:04.737Z,22.11
2023-06-27T08:14:04.763Z,21.77
2023-06-27T08:15:04.879Z,21.67
2023-06-27T08:16:04.940Z,21.86
2023-06-27T08:17:05.017Z,21.93
2023-06-27T08:18:07.164Z,21.83
2023-06-27T08:19:05.156Z,21.88
2023-06-27T08:20:05.276Z,22.14
2023-06-27T08:21:05.348Z,22.19
2023-06-27T08:22:05.416Z,21.83
2023-06-27T08:23:05.596Z,21.38
2023-06-27T08:24:05.620Z,20.98
2023-06-27T08:25:05.688Z,20.63
2023-06-27T08:26:05.728Z,20.38
2023-06-27T08:27:05.798Z,20.18
2023-06-27T08:28:05.892Z,20.03
2023-06-27T08:29:06.000Z,19.95
2023-06-27T08:30:06.090Z,19.95
2023-06-27T08:31:06.460Z,20.14
2023-06-27T08:32:06.187Z,20.72
2023-06-27T08:33:06.289Z,21.55
2023-06-27T08:34:06.327Z,22.37
2023-06-27T08:35:06.444Z,22.78
2023-06-27T08:36:06.517Z,23.05
2023-06-27T08:37:06.652Z,23.35
2023-06-27T08:38:06.672Z,23.73
2023-06-27T08:39:06.725Z,24.23
2023-06-27T08:40:06.824Z,24.63
2023-06-27T08:41:06.936Z,24.82
2023-06-27T08:42:06.988Z,24.80
2023-06-27T08:43:07.090Z,24.56
2023-06-27T08:44:07.194Z,24.10
2023-06-27T08:45:07.257Z,23.47
2023-06-27T08:46:07.323Z,22.89
2023-06-27T08:47:07.414Z,22.69
2023-06-27T08:48:07.497Z,22.51
2023-06-27T08:49:07.554Z,22.27
2023-06-27T08:50:07.643Z,22.17
2023-06-27T08:51:07.726Z,22.28
2023-06-27T08:52:07.768Z,22.50
2023-06-27T08:53:07.834Z,22.55
2023-06-27T08:54:07.884Z,22.82
2023-06-27T08:55:07.998Z,23.54
2023-06-27T08:56:08.107Z,24.34
2023-06-27T08:57:08.386Z,24.80
2023-06-27T08:58:08.224Z,24.87
2023-06-27T08:59:08.320Z,24.70
2023-06-27T09:00:08.424Z,24.34
2023-06-27T09:01:08.547Z,23.87
2023-06-27T09:02:08.567Z,23.31
2023-06-27T09:03:08.801Z,22.80
2023-06-27T09:04:08.771Z,22.46
2023-06-27T09:05:08.782Z,22.25
2023-06-27T09:06:08.866Z,22.15
2023-06-27T09:07:08.981Z,22.11
2023-06-27T09:08:09.031Z,22.08
2023-06-27T09:09:09.109Z,22.00
2023-06-27T09:10:09.221Z,21.90
2023-06-27T09:11:09.310Z,21.78
2023-06-27T09:12:09.379Z,21.61
2023-06-27T09:13:09.438Z,21.35
2023-06-27T09:14:09.502Z,21.09
2023-06-27T09:15:09.569Z,20.79
2023-06-27T09:16:09.713Z,20.26
2023-06-27T09:17:09.735Z,19.45
2023-06-27T09:18:09.856Z,18.53
2023-06-27T09:19:09.885Z,17.48
2023-06-27T09:20:09.951Z,16.48
2023-06-27T09:21:10.012Z,15.74
2023-06-27T09:22:10.108Z,15.26
2023-06-27T09:23:10.162Z,14.98
2023-06-27T09:24:10.284Z,14.84
2023-06-27T09:25:10.382Z,14.82
2023-06-27T09:26:10.432Z,14.84
2023-06-27T09:27:10.522Z,14.88
2023-06-27T09:28:10.608Z,14.96
2023-06-27T09:29:10.669Z,15.09
2023-06-27T09:30:10.760Z,15.30
2023-06-27T09:31:10.910Z,15.51
2023-06-27T09:32:10.957Z,15.76
2023-06-27T09:33:11.094Z,16.13
2023-06-27T09:34:11.170Z,16.68
2023-06-27T09:35:11.234Z,17.29
2023-06-27T09:36:11.333Z,17.96
2023-06-27T09:39:11.527Z,19.69
2023-06-27T09:40:11.607Z,20.05
2023-06-27T09:41:11.668Z,20.44
2023-06-27T09:42:11.754Z,20.76
2023-06-27T09:43:11.889Z,20.60
2023-06-27T09:44:11.913Z,20.15
2023-06-27T09:45:11.997Z,19.71
2023-06-27T09:46:12.112Z,19.30
2023-06-27T09:47:12.193Z,18.91
2023-06-27T09:48:12.418Z,18.59
2023-06-27T09:49:12.382Z,18.33
2023-06-27T09:50:12.427Z,18.25
2023-06-27T09:51:12.480Z,18.38
2023-06-27T09:52:12.564Z,18.77
2023-06-27T09:53:12.642Z,19.36
2023-06-27T09:54:13.588Z,19.96
2023-06-27T09:55:12.847Z,20.43
2023-06-27T09:56:13.761Z,20.76
2023-06-27T09:57:13.004Z,20.99
2023-06-27T09:58:13.154Z,21.10
2023-06-27T09:59:22.704Z,21.13
2023-06-27T10:00:13.257Z,21.18
2023-06-27T10:01:20.011Z,21.27
2023-06-27T10:02:14.481Z,21.34
2023-06-27T10:03:14.627Z,21.51
2023-06-27T10:04:15.258Z,21.77
2023-06-27T10:05:13.689Z,21.99
2023-06-27T10:06:14.416Z,22.15
2023-06-27T10:07:14.091Z,22.28
2023-06-27T10:08:13.908Z,22.34
2023-06-27T10:09:14.008Z,22.36
2023-06-27T10:10:14.045Z,22.40
2023-06-27T10:11:14.144Z,22.56
2023-06-27T10:12:14.229Z,22.86
2023-06-27T10:13:14.288Z,23.30
2023-06-27T10:14:14.412Z,23.74
2023-06-27T10:15:14.454Z,23.92
2023-06-27T10:16:14.523Z,23.94
2023-06-27T10:17:14.622Z,24.21
2023-06-27T10:18:14.689Z,24.54
2023-06-27T10:19:14.747Z,24.69
2023-06-27T10:20:14.858Z,24.70
2023-06-27T10:21:14.916Z,24.52
2023-06-27T10:22:15.013Z,24.12
2023-06-27T10:23:15.123Z,23.65
2023-06-27T10:24:15.198Z,23.16
2023-06-27T10:25:15.266Z,22.63
2023-06-27T10:26:15.360Z,22.09
2023-06-27T10:27:15.423Z,21.58
2023-06-27T10:28:15.527Z,21.19
2023-06-27T10:29:15.603Z,21.23
2023-06-27T10:30:15.804Z,21.42
2023-06-27T10:31:15.870Z,21.43
2023-06-27T10:32:15.838Z,21.46
2023-06-27T10:33:15.933Z,21.68
2023-06-27T10:34:15.986Z,21.97
2023-06-27T10:35:16.113Z,22.29
2023-06-27T10:36:16.213Z,22.60
2023-06-27T10:37:16.268Z,22.72
2023-06-27T10:38:16.375Z,22.76
2023-06-27T10:39:16.510Z,22.94
2023-06-27T10:40:16.573Z,23.27
2023-06-27T10:41:16.622Z,23.66
2023-06-27T10:42:16.721Z,24.05
2023-06-27T10:43:16.778Z,24.32
2023-06-27T10:44:16.842Z,24.57
2023-06-27T10:45:16.953Z,24.77
2023-06-27T10:46:17.005Z,24.94
2023-06-27T10:47:17.092Z,24.98
2023-06-27T10:48:17.167Z,24.89
2023-06-27T10:49:17.258Z,24.76
2023-06-27T10:50:17.382Z,24.46
2023-06-27T10:51:17.443Z,24.02
2023-06-27T10:52:17.484Z,23.51
2023-06-27T10:53:17.562Z,22.96
2023-06-27T10:54:17.645Z,22.43
2023-06-27T10:55:17.717Z,21.88
2023-06-27T10:56:17.788Z,21.16
2023-06-27T10:57:17.889Z,20.30
2023-06-27T10:58:17.965Z,19.49
2023-06-27T10:59:18.060Z,18.79
2023-06-27T11:00:18.099Z,18.29
2023-06-27T11:01:18.189Z,18.01
2023-06-27T11:02:18.373Z,17.94
2023-06-27T11:03:18.566Z,17.95
2023-06-27T11:04:18.600Z,18.04
2023-06-27T11:05:18.591Z,18.17
2023-06-27T11:06:18.707Z,18.31
2023-06-27T11:07:19.098Z,18.55
2023-06-27T11:08:18.842Z,18.70
2023-06-27T11:09:18.881Z,18.85
2023-06-27T11:10:18.951Z,19.20
2023-06-27T11:11:19.028Z,19.69
2023-06-27T11:12:19.097Z,20.22
2023-06-27T11:13:19.149Z,20.80
2023-06-27T11:14:19.275Z,21.41
2023-06-27T11:15:19.332Z,21.99
2023-06-27T11:16:19.427Z,22.36
2023-06-27T11:17:19.497Z,22.52
2023-06-27T11:18:19.560Z,22.66
2023-06-27T11:19:20.627Z,22.89
2023-06-27T11:20:19.709Z,23.10
2023-06-27T11:21:19.823Z,23.33
2023-06-27T11:22:19.905Z,23.67
2023-06-27T11:23:19.953Z,24.03
2023-06-27T11:24:20.042Z,24.38
2023-06-27T11:25:20.120Z,24.70
2023-06-27T11:26:20.185Z,24.96
2023-06-27T11:27:20.304Z,25.16
2023-06-27T11:28:20.372Z,25.33
2023-06-27T11:29:20.538Z,25.47
2023-06-27T11:30:22.405Z,25.69
2023-06-27T11:31:20.607Z,25.89
2023-06-27T11:32:20.675Z,26.07
2023-06-27T11:33:20.823Z,26.14
2023-06-27T11:34:20.818Z,26.17
2023-06-27T11:35:20.880Z,26.24
2023-06-27T11:36:20.949Z,26.20
2023-06-27T11:37:21.010Z,25.84
2023-06-27T11:38:21.126Z,25.23
2023-06-27T11:39:21.201Z,24.57
2023-06-27T11:40:21.925Z,24.20
2023-06-27T11:41:21.370Z,24.14
2023-06-27T11:42:21.479Z,24.36
2023-06-27T11:43:21.523Z,24.74
2023-06-27T11:44:21.673Z,24.97
2023-06-27T11:45:21.699Z,25.19
2023-06-27T11:46:21.790Z,25.37
2023-06-27T11:47:21.881Z,25.51
2023-06-27T11:48:21.989Z,25.66
2023-06-27T11:49:22.061Z,25.76
2023-06-27T11:50:22.116Z,25.81
2023-06-27T11:51:22.217Z,25.82
2023-06-27T11:52:22.278Z,25.86
2023-06-27T11:53:22.401Z,25.73
2023-06-27T11:54:22.428Z,25.28
2023-06-27T11:55:22.528Z,24.81
2023-06-27T12:06:15.037Z,24.72
2023-06-27T12:06:21.851Z,24.94
2023-06-27T12:06:27.779Z,24.86
2023-06-27T12:07:27.913Z,24.66
2023-06-27T12:08:27.852Z,24.80
2023-06-27T12:09:27.942Z,25.20
2023-06-27T12:10:28.039Z,25.59
2023-06-27T12:11:28.137Z,25.83
2023-06-27T12:12:28.197Z,26.02
2023-06-27T12:13:28.296Z,25.96
2023-06-27T12:14:28.454Z,25.56
2023-06-27T12:15:28.449Z,25.09
2023-06-27T12:16:28.549Z,24.66
2023-06-27T12:17:28.693Z,24.35
2023-06-27T12:18:28.747Z,24.13
2023-06-27T12:19:28.801Z,23.78
2023-06-27T12:20:28.897Z,23.39
2023-06-27T12:21:29.016Z,23.12
2023-06-27T12:22:29.071Z,22.85
2023-06-27T12:23:29.172Z,22.49
2023-06-27T12:24:29.275Z,22.09
2023-06-27T12:25:29.329Z,21.64
2023-06-27T12:26:29.432Z,21.21
2023-06-27T12:27:29.497Z,20.83
2023-06-27T12:28:29.581Z,20.49
2023-06-27T12:29:29.664Z,20.16
2023-06-27T12:30:29.712Z,19.85
2023-06-27T12:31:29.834Z,19.57
2023-06-27T12:32:29.875Z,19.35
2023-06-27T12:33:30.037Z,19.21
2023-06-27T12:34:30.032Z,19.19
2023-06-27T12:35:30.084Z,19.19
2023-06-27T12:36:30.199Z,19.14
2023-06-27T12:37:30.293Z,19.10
2023-06-27T12:38:30.351Z,19.09
2023-06-27T12:39:30.418Z,19.07
2023-06-27T12:40:30.468Z,19.07
2023-06-27T12:41:30.797Z,19.13
2023-06-27T12:42:30.647Z,19.17
2023-06-27T12:43:30.704Z,19.19
2023-06-27T12:44:30.797Z,19.26
2023-06-27T12:45:33.436Z,19.36
2023-06-27T12:46:30.950Z,19.51
2023-06-27T12:47:31.070Z,19.67
2023-06-27T12:48:31.060Z,19.82
2023-06-27T12:49:31.148Z,20.12
2023-06-27T12:50:31.263Z,20.66
2023-06-27T12:51:31.294Z,21.31
2023-06-27T12:52:31.391Z,21.92
2023-06-27T12:53:31.449Z,22.38
2023-06-27T12:54:31.547Z,22.75
2023-06-27T12:55:31.645Z,23.15
2023-06-27T12:56:31.701Z,23.56
2023-06-27T12:57:31.795Z,23.98
2023-06-27T12:58:31.892Z,24.33
2023-06-27T12:59:31.990Z,24.62
2023-06-27T13:00:32.097Z,24.84
2023-06-27T13:01:32.188Z,25.01
2023-06-27T13:02:34.322Z,25.14
2023-06-27T13:03:32.516Z,25.09
2023-06-27T13:04:32.396Z,25.18